Clipper Saga — LAFY6 — position and weather

sailwx.info

Track history (hours):
 
Tides and Currents Weather Stations Pressure Air Temp Water Temp Dewpoint Dewpoint Depression Visibility Wind Speed Wind Dir Waves Ship Positions

Clipper Saga

Last reported at 2016-Aug-25 08:29 UTC. Time now 2016-Aug-25 09:46 UTC.
Position N 51°56' E 004°03'.

Length 89 m; draft 5.9 m.

Type: Ship (hazmat cat C). MMSI: 246657008.

Date/timePositionNaut miles runAvg speedWind from/ knotsBaromVisibWave heightAir tempDewpointWater temp
2016-Aug-25 08:29N 51°56' E 004°03'0 0.0
2016-Aug-25 07:33N 51°56' E 004°03'0 0.0
2016-Aug-25 06:30N 51°56' E 004°03'0 0.0
2016-Aug-25 04:29N 51°56' E 004°03'0 0.1
2016-Aug-25 03:34N 51°56' E 004°03'5 5.3
2016-Aug-25 02:33N 51°60' E 003°57'9 8.6
2016-Aug-25 01:34N 51°58' E 003°44'1 1.1
2016-Aug-25 00:32N 51°57' E 003°42'0 0.0
2016-Aug-24 23:29N 51°57' E 003°42'0 0.1
2016-Aug-24 22:32N 51°57' E 003°42'0 0.0
2016-Aug-24 21:32N 51°57' E 003°42'0 0.0
2016-Aug-24 20:26N 51°57' E 003°42'0 0.0
2016-Aug-24 19:14N 51°57' E 003°42'0 0.0
2016-Aug-24 18:17N 51°57' E 003°42'0 0.2
2016-Aug-24 17:33N 51°57' E 003°42'2411.6
2016-Aug-24 15:29N 51°51' E 003°04'1010.7
2016-Aug-24 14:33N 51°47' E 002°50'3 2.7
2016-Aug-24 13:33N 51°47' E 002°54'5 4.4
2016-Aug-24 12:29N 51°48' E 003°01'6 6.5
2016-Aug-24 11:34N 51°50' E 002°52'7 7.3
2016-Aug-24 10:32N 51°53' E 002°41'11 8.7
2016-Aug-24 09:16N 52°04' E 002°35'22 6.9
2016-Aug-24 06:08N 52°23' E 002°20'14 7.6
2016-Aug-24 04:20N 52°11' E 002°11'6 8.4
2016-Aug-24 03:33N 52°04' E 002°11'7 6.8
2016-Aug-24 02:33N 51°58' E 002°13'9 8.7
2016-Aug-24 01:33N 51°55' E 002°27'8 8.1
2016-Aug-24 00:33N 51°50' E 002°37'9 9.1
2016-Aug-23 23:33N 51°46' E 002°50'1312.9
2016-Aug-23 22:33N 51°43' E 003°10'1211.8
2016-Aug-23 21:33N 51°35' E 003°24'1212.4
2016-Aug-23 20:33N 51°26' E 003°39'7 7.0
2016-Aug-23 19:32N 51°21' E 003°46'0 0.0
2016-Aug-23 18:32N 51°21' E 003°46'0 0.0
2016-Aug-23 17:32N 51°21' E 003°46'0 0.0
2016-Aug-23 16:26N 51°21' E 003°46'0 0.0
2016-Aug-23 15:32N 51°21' E 003°46'0 0.0
2016-Aug-23 14:29N 51°21' E 003°46'0 0.0
2016-Aug-23 13:32N 51°21' E 003°46'0 0.0
2016-Aug-23 12:26N 51°21' E 003°46'0 0.0
2016-Aug-23 11:23N 51°21' E 003°46'0 0.0
2016-Aug-23 10:29N 51°21' E 003°46'0 0.0
2016-Aug-23 09:32N 51°21' E 003°46'0 0.0
2016-Aug-23 08:32N 51°21' E 003°46'0 0.0
2016-Aug-23 07:20N 51°21' E 003°46'0 0.0
2016-Aug-23 06:26N 51°21' E 003°46'0 0.0
2016-Aug-23 05:32N 51°21' E 003°46'0 0.0
2016-Aug-23 04:23N 51°21' E 003°46'0 0.0
2016-Aug-23 03:26N 51°21' E 003°46'0 0.0
2016-Aug-23 02:32N 51°21' E 003°46'0 0.0
2016-Aug-23 01:32N 51°21' E 003°46'0 0.0
2016-Aug-23 00:32N 51°21' E 003°46'0 0.0
2016-Aug-22 23:32N 51°21' E 003°46'0 0.0
2016-Aug-22 22:32N 51°21' E 003°46'0 0.0
2016-Aug-22 21:23N 51°21' E 003°46'0 0.0
2016-Aug-22 20:29N 51°21' E 003°46'0 0.0
2016-Aug-22 19:32N 51°21' E 003°46'0 0.0
2016-Aug-22 18:32N 51°21' E 003°46'0 0.0
2016-Aug-22 17:23N 51°21' E 003°46'0 0.0
2016-Aug-22 16:32N 51°21' E 003°46'0 0.0
2016-Aug-22 15:32N 51°21' E 003°46'0 0.0
2016-Aug-22 14:33N 51°21' E 003°46'7 7.3
2016-Aug-22 13:34N 51°26' E 003°38'1211.9
2016-Aug-22 12:33N 51°34' E 003°24'1110.9
2016-Aug-22 11:33N 51°44' E 003°15'1611.8
2016-Aug-22 10:13N 51°59' E 003°20'912.1
2016-Aug-22 09:28N 52°08' E 003°22'9310.3
2016-Aug-22 00:30N 53°30' E 004°35'1211.6
2016-Aug-21 23:30N 53°40' E 004°42'1111.0
2016-Aug-21 22:33N 53°50' E 004°49'1110.8
2016-Aug-21 21:33N 53°60' E 004°57'1110.7
2016-Aug-21 20:33N 54°10' E 005°05'1410.8
2016-Aug-21 19:16N 54°22' E 005°17'25310.2
2016-Aug-20 18:31N 58°05' E 008°52'4611.4
2016-Aug-20 14:28N 58°43' E 009°41'1111.7
2016-Aug-20 13:33N 58°53' E 009°46'10 9.4
2016-Aug-20 12:31N 59°03' E 009°42'4 0.1
2016-Aug-18 18:09N 59°06' E 009°36'4 4.3
2016-Aug-18 17:16N 59°03' E 009°41'6 9.0
2016-Aug-18 16:34N 58°58' E 009°48'1010.2
2016-Aug-18 15:34N 58°48' E 009°47'14210.7
2016-Aug-18 02:15N 57°13' E 006°28'912.2
2016-Aug-18 01:31N 57°08' E 006°14'1111.7
2016-Aug-18 00:33N 57°01' E 005°57'1211.7
2016-Aug-17 23:33N 56°55' E 005°39'1211.9
2016-Aug-17 22:33N 56°48' E 005°21'1211.9
2016-Aug-17 21:33N 56°42' E 005°03'11712.3
2016-Aug-17 12:05N 55°30' E 002°18'612.2
2016-Aug-17 11:33N 55°25' E 002°09'1412.1
2016-Aug-17 10:26N 55°17' E 001°51'9712.4
2016-Aug-17 02:33N 53°50' E 000°34'1110.8
2016-Aug-17 01:33N 53°41' E 000°25'1010.4
2016-Aug-17 00:33N 53°32' E 000°15'1010.0
2016-Aug-16 23:33N 53°35' W 000°01'7 6.7
2016-Aug-16 22:32N 53°38' W 000°11'0 0.0
2016-Aug-16 21:32N 53°38' W 000°11'0 0.0
2016-Aug-16 20:32N 53°38' W 000°11'0 0.0
2016-Aug-16 19:32N 53°38' W 000°11'0 0.0
2016-Aug-16 18:33N 53°38' W 000°11'0 0.0
2016-Aug-16 17:32N 53°38' W 000°11'0 0.0
2016-Aug-16 16:32N 53°38' W 000°11'0 0.0
2016-Aug-16 15:32N 53°38' W 000°11'0 0.0
2016-Aug-16 14:32N 53°38' W 000°11'0 0.0
2016-Aug-16 13:32N 53°38' W 000°11'0 0.0
2016-Aug-16 12:32N 53°38' W 000°11'0 0.0
2016-Aug-16 11:32N 53°38' W 000°11'0 0.0
2016-Aug-16 10:32N 53°38' W 000°11'0 0.0
2016-Aug-16 09:32N 53°38' W 000°11'0 0.0
2016-Aug-16 08:29N 53°38' W 000°11'0 0.0
2016-Aug-16 07:32N 53°38' W 000°11'0 0.0
2016-Aug-16 04:32N 53°38' W 000°11'0 0.0
2016-Aug-16 03:33N 53°38' W 000°11'1 1.2
2016-Aug-16 02:33N 53°38' W 000°09'1312.7
2016-Aug-16 01:34N 53°33' E 000°10'7 6.7
2016-Aug-16 00:32N 53°33' E 000°22'3 2.8
2016-Aug-15 23:28N 53°35' E 000°26'0 0.0
2016-Aug-15 22:31N 53°35' E 000°26'0 0.0
2016-Aug-15 21:16N 53°35' E 000°26'0 0.0
2016-Aug-15 20:31N 53°35' E 000°26'0 0.0
2016-Aug-15 19:04N 53°35' E 000°26'0 0.0
2016-Aug-15 18:22N 53°35' E 000°26'0 0.1
2016-Aug-15 17:07N 53°34' E 000°26'0 0.1
2016-Aug-15 16:22N 53°34' E 000°26'0 0.0
2016-Aug-15 15:26N 53°34' E 000°26'0 0.0
2016-Aug-15 13:22N 53°34' E 000°26'0 0.0
2016-Aug-15 12:28N 53°34' E 000°26'0 0.1
2016-Aug-15 11:13N 53°35' E 000°26'0 0.1
2016-Aug-15 10:25N 53°35' E 000°26'0 0.0
2016-Aug-15 09:28N 53°35' E 000°26'0 0.0
2016-Aug-15 08:31N 53°35' E 000°26'  
Track history (hours):
 
Tides and Currents Weather Stations Pressure Air Temp Water Temp Dewpoint Dewpoint Depression Visibility Wind Speed Wind Dir Waves Ship Positions

Clipper Saga

Last reported at 2016-Aug-25 08:29 UTC. Time now 2016-Aug-25 09:46 UTC.
Position N 51°56' E 004°03'.

Length 89 m; draft 5.9 m.

Type: Ship (hazmat cat C). MMSI: 246657008.

Date/timePositionNaut miles runAvg speedWind from/ knotsBaromVisibWave heightAir tempDewpointWater temp
2016-Aug-25 08:29N 51°56' E 004°03'0 0.0
2016-Aug-25 07:33N 51°56' E 004°03'0 0.0
2016-Aug-25 06:30N 51°56' E 004°03'0 0.0
2016-Aug-25 04:29N 51°56' E 004°03'0 0.1
2016-Aug-25 03:34N 51°56' E 004°03'5 5.3
2016-Aug-25 02:33N 51°60' E 003°57'9 8.6
2016-Aug-25 01:34N 51°58' E 003°44'1 1.1
2016-Aug-25 00:32N 51°57' E 003°42'0 0.0
2016-Aug-24 23:29N 51°57' E 003°42'0 0.1
2016-Aug-24 22:32N 51°57' E 003°42'0 0.0
2016-Aug-24 21:32N 51°57' E 003°42'0 0.0
2016-Aug-24 20:26N 51°57' E 003°42'0 0.0
2016-Aug-24 19:14N 51°57' E 003°42'0 0.0
2016-Aug-24 18:17N 51°57' E 003°42'0 0.2
2016-Aug-24 17:33N 51°57' E 003°42'2411.6
2016-Aug-24 15:29N 51°51' E 003°04'1010.7
2016-Aug-24 14:33N 51°47' E 002°50'3 2.7
2016-Aug-24 13:33N 51°47' E 002°54'5 4.4
2016-Aug-24 12:29N 51°48' E 003°01'6 6.5
2016-Aug-24 11:34N 51°50' E 002°52'7 7.3
2016-Aug-24 10:32N 51°53' E 002°41'11 8.7
2016-Aug-24 09:16N 52°04' E 002°35'22 6.9
2016-Aug-24 06:08N 52°23' E 002°20'14 7.6
2016-Aug-24 04:20N 52°11' E 002°11'6 8.4
2016-Aug-24 03:33N 52°04' E 002°11'7 6.8
2016-Aug-24 02:33N 51°58' E 002°13'9 8.7
2016-Aug-24 01:33N 51°55' E 002°27'8 8.1
2016-Aug-24 00:33N 51°50' E 002°37'9 9.1
2016-Aug-23 23:33N 51°46' E 002°50'1312.9
2016-Aug-23 22:33N 51°43' E 003°10'1211.8
2016-Aug-23 21:33N 51°35' E 003°24'1212.4
2016-Aug-23 20:33N 51°26' E 003°39'7 7.0
2016-Aug-23 19:32N 51°21' E 003°46'0 0.0
2016-Aug-23 18:32N 51°21' E 003°46'0 0.0
2016-Aug-23 17:32N 51°21' E 003°46'0 0.0
2016-Aug-23 16:26N 51°21' E 003°46'0 0.0
2016-Aug-23 15:32N 51°21' E 003°46'0 0.0
2016-Aug-23 14:29N 51°21' E 003°46'0 0.0
2016-Aug-23 13:32N 51°21' E 003°46'0 0.0
2016-Aug-23 12:26N 51°21' E 003°46'0 0.0
2016-Aug-23 11:23N 51°21' E 003°46'0 0.0
2016-Aug-23 10:29N 51°21' E 003°46'0 0.0
2016-Aug-23 09:32N 51°21' E 003°46'0 0.0
2016-Aug-23 08:32N 51°21' E 003°46'0 0.0
2016-Aug-23 07:20N 51°21' E 003°46'0 0.0
2016-Aug-23 06:26N 51°21' E 003°46'0 0.0
2016-Aug-23 05:32N 51°21' E 003°46'0 0.0
2016-Aug-23 04:23N 51°21' E 003°46'0 0.0
2016-Aug-23 03:26N 51°21' E 003°46'0 0.0
2016-Aug-23 02:32N 51°21' E 003°46'0 0.0
2016-Aug-23 01:32N 51°21' E 003°46'0 0.0
2016-Aug-23 00:32N 51°21' E 003°46'0 0.0
2016-Aug-22 23:32N 51°21' E 003°46'0 0.0
2016-Aug-22 22:32N 51°21' E 003°46'0 0.0
2016-Aug-22 21:23N 51°21' E 003°46'0 0.0
2016-Aug-22 20:29N 51°21' E 003°46'0 0.0
2016-Aug-22 19:32N 51°21' E 003°46'0 0.0
2016-Aug-22 18:32N 51°21' E 003°46'0 0.0
2016-Aug-22 17:23N 51°21' E 003°46'0 0.0
2016-Aug-22 16:32N 51°21' E 003°46'0 0.0
2016-Aug-22 15:32N 51°21' E 003°46'0 0.0
2016-Aug-22 14:33N 51°21' E 003°46'7 7.3
2016-Aug-22 13:34N 51°26' E 003°38'1211.9
2016-Aug-22 12:33N 51°34' E 003°24'1110.9
2016-Aug-22 11:33N 51°44' E 003°15'1611.8
2016-Aug-22 10:13N 51°59' E 003°20'912.1
2016-Aug-22 09:28N 52°08' E 003°22'9310.3
2016-Aug-22 00:30N 53°30' E 004°35'1211.6
2016-Aug-21 23:30N 53°40' E 004°42'1111.0
2016-Aug-21 22:33N 53°50' E 004°49'1110.8
2016-Aug-21 21:33N 53°60' E 004°57'1110.7
2016-Aug-21 20:33N 54°10' E 005°05'1410.8
2016-Aug-21 19:16N 54°22' E 005°17'25310.2
2016-Aug-20 18:31N 58°05' E 008°52'4611.4
2016-Aug-20 14:28N 58°43' E 009°41'1111.7
2016-Aug-20 13:33N 58°53' E 009°46'10 9.4
2016-Aug-20 12:31N 59°03' E 009°42'4 0.1
2016-Aug-18 18:09N 59°06' E 009°36'4 4.3
2016-Aug-18 17:16N 59°03' E 009°41'6 9.0
2016-Aug-18 16:34N 58°58' E 009°48'1010.2
2016-Aug-18 15:34N 58°48' E 009°47'14210.7
2016-Aug-18 02:15N 57°13' E 006°28'912.2
2016-Aug-18 01:31N 57°08' E 006°14'1111.7
2016-Aug-18 00:33N 57°01' E 005°57'1211.7
2016-Aug-17 23:33N 56°55' E 005°39'1211.9
2016-Aug-17 22:33N 56°48' E 005°21'1211.9
2016-Aug-17 21:33N 56°42' E 005°03'11712.3
2016-Aug-17 12:05N 55°30' E 002°18'612.2
2016-Aug-17 11:33N 55°25' E 002°09'1412.1
2016-Aug-17 10:26N 55°17' E 001°51'9712.4
2016-Aug-17 02:33N 53°50' E 000°34'1110.8
2016-Aug-17 01:33N 53°41' E 000°25'1010.4
2016-Aug-17 00:33N 53°32' E 000°15'1010.0
2016-Aug-16 23:33N 53°35' W 000°01'7 6.7
2016-Aug-16 22:32N 53°38' W 000°11'0 0.0
2016-Aug-16 21:32N 53°38' W 000°11'0 0.0
2016-Aug-16 20:32N 53°38' W 000°11'0 0.0
2016-Aug-16 19:32N 53°38' W 000°11'0 0.0
2016-Aug-16 18:33N 53°38' W 000°11'0 0.0
2016-Aug-16 17:32N 53°38' W 000°11'0 0.0
2016-Aug-16 16:32N 53°38' W 000°11'0 0.0
2016-Aug-16 15:32N 53°38' W 000°11'0 0.0
2016-Aug-16 14:32N 53°38' W 000°11'0 0.0
2016-Aug-16 13:32N 53°38' W 000°11'0 0.0
2016-Aug-16 12:32N 53°38' W 000°11'0 0.0
2016-Aug-16 11:32N 53°38' W 000°11'0 0.0
2016-Aug-16 10:32N 53°38' W 000°11'0 0.0
2016-Aug-16 09:32N 53°38' W 000°11'0 0.0
2016-Aug-16 08:29N 53°38' W 000°11'0 0.0
2016-Aug-16 07:32N 53°38' W 000°11'0 0.0
2016-Aug-16 04:32N 53°38' W 000°11'0 0.0
2016-Aug-16 03:33N 53°38' W 000°11'1 1.2
2016-Aug-16 02:33N 53°38' W 000°09'1312.7
2016-Aug-16 01:34N 53°33' E 000°10'7 6.7
2016-Aug-16 00:32N 53°33' E 000°22'3 2.8
2016-Aug-15 23:28N 53°35' E 000°26'0 0.0
2016-Aug-15 22:31N 53°35' E 000°26'0 0.0
2016-Aug-15 21:16N 53°35' E 000°26'0 0.0
2016-Aug-15 20:31N 53°35' E 000°26'0 0.0
2016-Aug-15 19:04N 53°35' E 000°26'0 0.0
2016-Aug-15 18:22N 53°35' E 000°26'0 0.1
2016-Aug-15 17:07N 53°34' E 000°26'0 0.1
2016-Aug-15 16:22N 53°34' E 000°26'0 0.0
2016-Aug-15 15:26N 53°34' E 000°26'0 0.0
2016-Aug-15 13:22N 53°34' E 000°26'0 0.0
2016-Aug-15 12:28N 53°34' E 000°26'0 0.1
2016-Aug-15 11:13N 53°35' E 000°26'0 0.1
2016-Aug-15 10:25N 53°35' E 000°26'0 0.0
2016-Aug-15 09:28N 53°35' E 000°26'0 0.0
2016-Aug-15 08:31N 53°35' E 000°26'  

Dump ship's entire track history